Погода Песчанкина неделю

Тверская область, Россия

25 - 31 мая
  • 25мая
    Сегодня
    +9°
    +25°
    Ясно и безоблачно
    ВремяПогодаТемператураВлажностьДавлениеВетер, м/сВероятность осадков
    00:00Ясно и безоблачно+10°C58 %758 мм2.5 м/с2 %
    03:00Ясно и безоблачно+8°C58 %758 мм3.0 м/с2 %
    06:00Ясно и безоблачно+10°C62 %758 мм2.6 м/с2 %
    09:00Ясно и безоблачно+18°C47 %757 мм2.7 м/с2 %
    12:00Ясно и безоблачно+22°C34 %757 мм2.9 м/с2 %
    15:00Ясно и безоблачно+24°C34 %755 мм3.1 м/с2 %
    18:00Ясно и безоблачно+24°C36 %754 мм3.0 м/с2 %
    21:00Ясно и безоблачно+17°C60 %754 мм2.1 м/с2 %
  • 26мая
    Воскресенье
    +7°
    +23°
    Облачно с прояснениями, ливень
    ВремяПогодаТемператураВлажностьДавлениеВетер, м/сВероятность осадков
    00:00Ясно и безоблачно+11°C70 %754 мм2.3 м/с2 %
    03:00Ясно и безоблачно+10°C76 %753 мм2.5 м/с2 %
    06:00Ясно и безоблачно+12°C76 %754 мм2.4 м/с1 %
    09:00Облачно с прояснениями+19°C70 %754 мм0.9 м/с10 %
    12:00Пасмурно, дождь+19°C81 %755 мм2.9 м/с64 %
    15:00Облачно с прояснениями, ливень+23°C63 %754 мм2.2 м/с63 %
    18:00Облачно с прояснениями+22°C60 %754 мм1.5 м/с46 %
    21:00Практически безоблачно+18°C70 %755 мм2.2 м/с11 %
  • 27мая
    Понедельник
    +8°
    +23°
    Ясно и безоблачно
    ВремяПогодаТемператураВлажностьДавлениеВетер, м/сВероятность осадков
    00:00Ясно и безоблачно+11°C55 %756 мм3.0 м/с2 %
    03:00Ясно и безоблачно+8°C58 %756 мм2.1 м/с2 %
    06:00Практически безоблачно+9°C66 %757 мм2.0 м/с2 %
    09:00Ясно и безоблачно+18°C54 %757 мм2.0 м/с2 %
    12:00Ясно и безоблачно+21°C40 %757 мм2.3 м/с2 %
    15:00Ясно и безоблачно+23°C36 %756 мм1.9 м/с2 %
    18:00Ясно и безоблачно+23°C39 %755 мм1.5 м/с2 %
    21:00Ясно и безоблачно+18°C63 %755 мм1.9 м/с2 %
  • 28мая
    Вторник
    +10°
    +25°
    Ясно и безоблачно
    ВремяПогодаТемператураВлажностьДавлениеВетер, м/сВероятность осадков
    00:00Ясно и безоблачно+12°C71 %754 мм2.2 м/с2 %
    03:00Ясно и безоблачно+9°C84 %754 мм1.9 м/с2 %
    06:00Ясно и безоблачно+11°C77 %754 мм1.7 м/с2 %
    09:00Ясно и безоблачно+21°C59 %754 мм0.6 м/с2 %
    12:00Ясно и безоблачно+24°C41 %754 мм0.2 м/с15 %
    15:00Ясно и безоблачно+25°C37 %753 мм1.3 м/с17 %
    18:00Ясно и безоблачно+25°C40 %751 мм1.6 м/с17 %
    21:00Ясно и безоблачно+19°C60 %751 мм2.1 м/с5 %
  • 29мая
    Среда
    +10°
    +26°
    Практически безоблачно
    ВремяПогодаТемператураВлажностьДавлениеВетер, м/сВероятность осадков
    00:00Ясно и безоблачно+14°C68 %750 мм2.2 м/с2 %
    03:00Практически безоблачно+13°C78 %750 мм2.2 м/с2 %
    06:00Ясно и безоблачно+13°C82 %750 мм1.0 м/с8 %
    09:00Ясно и безоблачно+22°C60 %750 мм0.4 м/с9 %
    12:00Практически безоблачно+25°C40 %749 мм0.2 м/с31 %
    15:00Практически безоблачно+25°C40 %748 мм1.0 м/с27 %
    18:00Небольшая облачность+25°C43 %747 мм0.4 м/с36 %
    21:00Небольшая облачность+21°C63 %748 мм2.0 м/с14 %
Мы используем cookies
Соглашаюсь